Terminal Aerodrome Forecast
Issued by NWS

Home | Current Version | Previous Version | Text Only | Print | Product List | Glossary On
Versions: 1 2 3 4 5 6 7 8 9 10 11 12 13 14 15 16 17
000
FTUS46 KPDT 251120
TAFDLS
TAF
KDLS 251120Z 2512/2612 VRB05KT P6SM SCT060 BKN080 OVC120
     FM251700 32012KT P6SM SCT050 SCT090
     FM260300 31010KT P6SM SCT070 SCT150=

USA.gov is the U.S. government's official web portal to all federal, state and local government web resources and services.